Time;durP1;ratioP1;P1;durP2;ratioP2;P2;SDS_P1;SDS_P2;PMS_P1;PMS_P2;Temp;Humidity;BMP_temperature;BMP_pressure;BME280_temperature;BME280_humidity;BME280_pressure;Samples;Min_cycle;Max_cycle;Signal;HPM_P1;HPM_P2
2023/12/28 00:00:18;;;;;;;1.60;1.50;;;;;;;4.43;nan;60244.31;4994307;28;20651;-64
2023/12/28 00:02:43;;;;;;;1.30;1.30;;;;;;;4.55;nan;60408.88;4994176;28;20168;-65
2023/12/28 00:05:09;;;;;;;1.50;1.40;;;;;;;4.24;nan;60242.72;4994148;28;20279;-66
2023/12/28 00:07:35;;;;;;;1.40;1.30;;;;;;;4.45;nan;60218.75;4994173;28;20211;-67
2023/12/28 00:10:02;;;;;;;1.67;1.57;;;;;;;4.08;nan;60169.78;4992016;28;20172;-67
2023/12/28 00:12:27;;;;;;;1.67;1.40;;;;;;;4.57;nan;60246.78;4993756;28;20200;-67
2023/12/28 00:14:53;;;;;;;2.20;1.70;;;;;;;4.16;nan;60176.19;4993625;28;20539;-65
2023/12/28 00:17:18;;;;;;;2.10;2.00;;;;;;;4.36;nan;60190.97;4993883;28;20181;-64
2023/12/28 00:19:43;;;;;;;1.60;1.50;;;;;;;4.21;nan;60207.06;4993787;28;20173;-66
2023/12/28 00:22:09;;;;;;;1.53;1.43;;;;;;;4.22;nan;60189.94;4994436;28;20189;-64
2023/12/28 00:24:34;;;;;;;1.77;1.67;;;;;;;4.22;nan;60217.72;4994694;28;20265;-66
2023/12/28 00:26:59;;;;;;;1.20;1.20;;;;;;;4.42;nan;60214.81;4994140;28;20224;-65
2023/12/28 00:29:25;;;;;;;1.90;1.47;;;;;;;4.30;nan;60224.72;4993667;28;20184;-64
2023/12/28 00:31:50;;;;;;;1.40;1.30;;;;;;;4.57;nan;60256.88;4993777;28;20228;-67
2023/12/28 00:34:15;;;;;;;1.50;1.40;;;;;;;4.39;nan;60186.75;4993773;28;20216;-64
2023/12/28 00:36:41;;;;;;;1.23;1.23;;;;;;;4.37;nan;60242.66;4993819;28;20184;-68
2023/12/28 00:39:06;;;;;;;1.43;1.33;;;;;;;4.41;nan;60426.03;4993304;28;20730;-65
2023/12/28 00:41:31;;;;;;;1.27;1.27;;;;;;;4.36;nan;60218.22;4993218;28;20176;-66
2023/12/28 00:43:57;;;;;;;1.50;1.40;;;;;;;4.03;nan;60196.47;4993632;28;20234;-68
2023/12/28 00:46:22;;;;;;;2.07;1.97;;;;;;;4.19;nan;60163.84;4993456;28;20185;-68
2023/12/28 00:48:48;;;;;;;1.50;1.40;;;;;;;4.08;nan;60184.94;4993101;28;20185;-68
2023/12/28 00:51:13;;;;;;;1.27;1.27;;;;;;;4.19;nan;60384.25;4993386;28;20526;-66
2023/12/28 00:53:39;;;;;;;1.87;1.77;;;;;;;4.26;nan;60224.72;4992991;28;20212;-67
2023/12/28 00:56:04;;;;;;;1.40;1.33;;;;;;;4.25;nan;60400.53;4993171;28;20184;-68
2023/12/28 00:58:30;;;;;;;1.57;1.50;;;;;;;4.18;nan;60201.19;4993471;28;20673;-64
2023/12/28 01:00:56;;;;;;;1.10;1.10;;;;;;;4.00;nan;60201.28;4993107;28;20176;-66
2023/12/28 01:03:22;;;;;;;1.50;1.40;;;;;;;3.93;nan;60198.50;4992974;28;20180;-64
2023/12/28 01:05:50;;;;;;;1.43;1.37;;;;;;;4.14;nan;60181.00;4993504;28;20679;-64
2023/12/28 01:08:16;;;;;;;1.30;1.30;;;;;;;4.10;nan;60187.19;4993161;28;20235;-66
2023/12/28 01:10:42;;;;;;;1.20;1.20;;;;;;;3.97;nan;60170.72;4992850;28;20215;-62
2023/12/28 01:13:07;;;;;;;1.83;1.73;;;;;;;4.20;nan;60130.16;4992926;28;20240;-67
2023/12/28 01:15:33;;;;;;;1.57;1.47;;;;;;;4.09;nan;60181.03;5024444;28;20690;-65
2023/12/28 01:17:58;;;;;;;1.63;1.53;;;;;;;4.04;nan;60275.91;4992695;28;20279;-63
2023/12/28 01:20:23;;;;;;;3.80;1.57;;;;;;;3.93;nan;60146.00;4991907;28;20172;-65
2023/12/28 01:22:50;;;;;;;1.40;1.33;;;;;;;3.96;nan;60169.59;4992279;28;20259;-67
2023/12/28 01:25:15;;;;;;;1.60;1.50;;;;;;;3.96;nan;60156.41;4994053;28;20235;-63
2023/12/28 01:27:41;;;;;;;1.10;1.10;;;;;;;3.89;nan;60188.97;4992695;28;20615;-63
2023/12/28 01:30:07;;;;;;;1.40;1.33;;;;;;;3.99;nan;60102.22;4992570;28;20682;-64
2023/12/28 01:32:32;;;;;;;1.97;1.87;;;;;;;3.92;nan;60121.63;4992317;28;20228;-65
2023/12/28 01:34:58;;;;;;;1.23;1.23;;;;;;;3.87;nan;60110.97;4992272;28;20188;-66
2023/12/28 01:37:23;;;;;;;1.23;1.23;;;;;;;4.25;nan;60155.41;4992602;28;20628;-64
2023/12/28 01:39:48;;;;;;;1.30;1.30;;;;;;;4.22;nan;60167.19;4990846;28;20251;-65
2023/12/28 01:42:14;;;;;;;1.90;1.80;;;;;;;4.09;nan;60311.84;4992538;28;20183;-64
2023/12/28 01:44:39;;;;;;;1.20;1.20;;;;;;;3.86;nan;60140.72;4992182;28;20169;-64
2023/12/28 01:47:06;;;;;;;1.30;1.30;;;;;;;3.91;nan;60148.84;4992387;28;20172;-65
2023/12/28 01:49:33;;;;;;;1.53;1.43;;;;;;;3.77;nan;60289.19;4992191;28;20659;-65
2023/12/28 01:52:00;;;;;;;1.10;1.10;;;;;;;3.96;nan;60169.59;4992002;28;20684;-67
2023/12/28 01:54:26;;;;;;;1.70;1.60;;;;;;;3.96;nan;60164.53;4992225;28;20256;-66
2023/12/28 01:56:52;;;;;;;1.60;1.50;;;;;;;3.94;nan;60174.34;4992053;28;20259;-65
2023/12/28 01:59:18;;;;;;;1.40;1.30;;;;;;;3.45;nan;60026.81;4992274;28;20181;-65
2023/12/28 02:01:45;;;;;;;1.40;1.30;;;;;;;3.75;nan;60140.50;4990635;28;20234;-66
2023/12/28 02:04:10;;;;;;;1.03;1.03;;;;;;;3.69;nan;60083.88;4992281;28;20172;-67
2023/12/28 02:06:36;;;;;;;1.53;1.43;;;;;;;3.71;nan;60075.44;4991631;28;20203;-62
2023/12/28 02:09:01;;;;;;;1.77;1.63;;;;;;;3.54;nan;60097.97;4991830;28;20180;-63
2023/12/28 02:11:27;;;;;;;1.47;1.37;;;;;;;3.52;nan;60108.34;4991793;28;20173;-65
2023/12/28 02:13:52;;;;;;;1.13;1.13;;;;;;;3.24;nan;60043.75;4991799;28;20184;-63
2023/12/28 02:16:36;;;;;;;2.00;1.53;;;;;;;3.44;nan;60066.06;4991912;28;20180;-64
2023/12/28 02:19:18;;;;;;;1.00;1.00;;;;;;;3.15;nan;60056.97;4991866;28;20169;-66
2023/12/28 02:21:45;;;;;;;1.13;1.13;;;;;;;3.28;nan;59995.81;4991950;28;20655;-65
2023/12/28 02:24:11;;;;;;;3.53;2.10;;;;;;;2.97;nan;59981.97;4991892;28;20179;-65
2023/12/28 02:26:36;;;;;;;1.10;1.10;;;;;;;3.10;nan;60016.63;4991636;28;20180;-67
2023/12/28 02:29:01;;;;;;;1.30;1.30;;;;;;;3.05;nan;59970.16;5007362;28;20176;-65
2023/12/28 02:31:41;;;;;;;1.40;1.40;;;;;;;3.15;nan;59963.63;4991912;28;20224;-64
2023/12/28 02:34:15;;;;;;;1.70;1.60;;;;;;;3.09;nan;59967.06;4991816;28;20183;-64
2023/12/28 02:36:43;;;;;;;2.97;1.90;;;;;;;3.15;nan;59935.31;4991763;28;20254;-64
2023/12/28 02:39:11;;;;;;;1.20;1.20;;;;;;;2.92;nan;59869.94;5006573;28;20185;-64
2023/12/28 02:41:37;;;;;;;1.03;1.03;;;;;;;2.61;nan;59778.59;4991466;28;20224;-62
2023/12/28 02:44:02;;;;;;;1.30;1.30;;;;;;;2.93;nan;59782.81;4991712;28;20633;-65
2023/12/28 02:46:28;;;;;;;2.97;1.50;;;;;;;3.14;nan;59818.78;4991163;28;20180;-64
2023/12/28 02:48:57;;;;;;;1.13;1.13;;;;;;;3.08;nan;59759.13;4991710;28;20339;-64
2023/12/28 02:51:22;;;;;;;1.23;1.23;;;;;;;3.07;nan;59727.75;4991577;28;20294;-63
2023/12/28 02:53:47;;;;;;;1.93;1.83;;;;;;;2.92;nan;59708.56;4301287;28;21179;-66
2023/12/28 02:56:13;;;;;;;1.93;1.63;;;;;;;2.82;nan;59616.81;4216384;28;20915;-66
2023/12/28 02:58:38;;;;;;;2.20;2.10;;;;;;;2.77;nan;59603.72;4222084;28;20982;-66
2023/12/28 03:01:04;;;;;;;1.70;1.60;;;;;;;2.63;nan;59559.06;4229910;28;21069;-67
2023/12/28 03:03:29;;;;;;;1.80;1.70;;;;;;;2.47;nan;59533.22;4225201;28;21355;-66
2023/12/28 03:05:55;;;;;;;1.60;1.50;;;;;;;2.74;nan;59318.09;4858238;28;20714;-65
2023/12/28 03:08:20;;;;;;;1.60;1.50;;;;;;;2.50;nan;59186.38;4991232;28;20177;-66
2023/12/28 03:10:45;;;;;;;1.60;1.50;;;;;;;2.79;nan;58925.44;4991497;28;20209;-63
2023/12/28 03:13:11;;;;;;;4.03;2.20;;;;;;;2.71;nan;58793.75;4991621;28;20224;-62
2023/12/28 03:15:36;;;;;;;1.60;1.50;;;;;;;2.54;nan;58768.13;4990767;28;20180;-65
2023/12/28 03:18:01;;;;;;;1.53;1.43;;;;;;;2.43;nan;58705.72;4991490;28;20625;-63
2023/12/28 03:20:27;;;;;;;1.07;1.07;;;;;;;2.41;nan;58532.28;4991098;28;20177;-66
2023/12/28 03:22:52;;;;;;;2.03;1.60;;;;;;;2.65;nan;58490.44;4991148;28;20609;-66
2023/12/28 03:25:17;;;;;;;2.23;1.40;;;;;;;2.64;nan;58363.41;4990987;28;20301;-65
2023/12/28 03:27:43;;;;;;;1.70;1.60;;;;;;;2.22;nan;58285.56;4991313;28;20629;-64
2023/12/28 03:30:09;;;;;;;1.73;1.63;;;;;;;2.45;nan;58033.00;4992296;28;20262;-64
2023/12/28 03:32:34;;;;;;;1.47;1.37;;;;;;;2.47;nan;57312.03;4991620;28;20228;-65
2023/12/28 03:35:00;;;;;;;2.13;1.83;;;;;;;2.26;nan;57126.53;4990804;28;20196;-64
2023/12/28 03:37:25;;;;;;;1.90;1.53;;;;;;;2.17;nan;57014.28;4991303;28;20183;-65
2023/12/28 03:39:51;;;;;;;1.50;1.43;;;;;;;2.35;nan;56801.38;4991018;28;20204;-64
2023/12/28 03:42:16;;;;;;;1.10;1.10;;;;;;;2.19;nan;56870.47;4990975;28;20267;-65
2023/12/28 03:44:41;;;;;;;1.30;1.30;;;;;;;2.43;nan;57023.81;4992538;28;20558;-65
2023/12/28 03:47:07;;;;;;;1.30;1.30;;;;;;;2.37;nan;57077.31;4994069;28;20183;-64
2023/12/28 03:49:32;;;;;;;1.90;1.80;;;;;;;2.17;nan;57091.75;4994202;28;20176;-67
2023/12/28 03:51:57;;;;;;;1.57;1.50;;;;;;;2.21;nan;56759.38;4994148;28;20283;-65
2023/12/28 03:54:23;;;;;;;1.20;1.20;;;;;;;1.88;nan;56696.19;4994315;28;20197;-65
2023/12/28 03:56:48;;;;;;;2.13;2.03;;;;;;;2.17;nan;56701.78;4994157;28;20223;-66
2023/12/28 03:59:17;;;;;;;2.30;1.60;;;;;;;1.98;nan;57134.38;4994131;28;20180;-68
2023/12/28 04:01:42;;;;;;;1.20;1.20;;;;;;;2.20;nan;57459.84;4994035;28;20654;-63
2023/12/28 04:04:08;;;;;;;1.47;1.37;;;;;;;1.99;nan;57319.59;4994223;28;20184;-62
2023/12/28 04:06:34;;;;;;;1.53;1.43;;;;;;;2.08;nan;57766.53;4994335;28;20165;-65
2023/12/28 04:08:59;;;;;;;1.47;1.37;;;;;;;2.27;nan;58026.13;4994288;28;20224;-62
2023/12/28 04:11:24;;;;;;;1.50;1.40;;;;;;;2.44;nan;56994.69;4994035;28;20589;-66
2023/12/28 04:13:51;;;;;;;1.30;1.30;;;;;;;2.16;nan;56340.97;4993524;28;20255;-66
2023/12/28 04:16:16;;;;;;;1.50;1.40;;;;;;;1.89;nan;56553.91;4993188;28;20276;-65
2023/12/28 04:18:42;;;;;;;1.20;1.20;;;;;;;1.76;nan;56501.00;4993770;28;20650;-63
2023/12/28 04:21:10;;;;;;;1.30;1.30;;;;;;;2.09;nan;56049.38;4993849;28;20695;-66
2023/12/28 04:23:36;;;;;;;3.70;2.23;;;;;;;2.11;nan;56278.38;4993847;28;20234;-64
2023/12/28 04:26:01;;;;;;;1.17;1.17;;;;;;;2.41;nan;57310.63;4993767;28;20180;-66
2023/12/28 04:28:27;;;;;;;1.50;1.40;;;;;;;2.30;nan;57719.75;4993504;28;20169;-67
2023/12/28 04:30:52;;;;;;;1.00;1.00;;;;;;;2.09;nan;57697.13;4994933;28;20274;-64
2023/12/28 04:33:19;;;;;;;1.33;1.27;;;;;;;2.15;nan;57675.91;4994187;28;20236;-64
2023/12/28 04:35:44;;;;;;;1.20;1.20;;;;;;;1.81;nan;57637.34;4993805;28;20211;-64
2023/12/28 04:38:10;;;;;;;1.83;1.27;;;;;;;1.89;nan;57514.63;4993424;28;20218;-65
2023/12/28 04:40:35;;;;;;;1.20;1.20;;;;;;;1.96;nan;57969.94;4993365;28;20189;-65
2023/12/28 04:43:01;;;;;;;1.70;1.60;;;;;;;1.97;nan;58243.31;4874477;28;20184;-64
2023/12/28 04:45:27;;;;;;;1.60;1.50;;;;;;;1.64;nan;58313.09;4767294;28;20184;-64
2023/12/28 04:47:52;;;;;;;1.50;1.40;;;;;;;1.45;nan;58166.75;4993574;28;20252;-62
2023/12/28 04:50:18;;;;;;;2.10;2.00;;;;;;;1.72;nan;58037.59;4460710;28;20988;-66
2023/12/28 04:52:43;;;;;;;1.03;1.03;;;;;;;1.55;nan;58029.25;4703814;28;20295;-64
2023/12/28 04:55:09;;;;;;;1.83;1.73;;;;;;;1.67;nan;58019.59;4992962;28;20199;-67
2023/12/28 04:57:34;;;;;;;1.50;1.40;;;;;;;1.43;nan;58014.31;4992884;28;20175;-65
2023/12/28 04:59:59;;;;;;;1.63;1.53;;;;;;;1.69;nan;58152.56;4993658;28;20211;-65
2023/12/28 05:02:25;;;;;;;1.80;1.70;;;;;;;1.67;nan;58221.34;4992998;28;20216;-64
2023/12/28 05:04:50;;;;;;;2.00;1.60;;;;;;;1.45;nan;58275.41;4993282;28;20181;-65
2023/12/28 05:07:15;;;;;;;1.20;1.20;;;;;;;1.18;nan;58303.84;4992965;28;20187;-66
2023/12/28 05:09:41;;;;;;;1.30;1.23;;;;;;;1.32;nan;58236.13;4992866;28;20183;-63
2023/12/28 05:12:06;;;;;;;1.77;1.67;;;;;;;1.32;nan;57746.03;4992499;28;20711;-66
2023/12/28 05:14:32;;;;;;;1.53;1.43;;;;;;;1.00;nan;57475.47;4993203;28;20195;-63
2023/12/28 05:16:57;;;;;;;1.73;1.63;;;;;;;0.99;nan;56613.03;4991416;28;20195;-62
2023/12/28 05:19:22;;;;;;;1.50;1.40;;;;;;;1.29;nan;55989.72;4992613;28;20189;-65
2023/12/28 05:21:48;;;;;;;1.00;1.00;;;;;;;1.05;nan;55221.47;4984739;28;20238;-63
2023/12/28 05:24:13;;;;;;;1.50;1.40;;;;;;;0.85;nan;53946.34;4992943;28;20182;-67
2023/12/28 05:26:39;;;;;;;1.67;1.57;;;;;;;1.22;nan;53238.47;4992265;28;20198;-66
2023/12/28 05:29:04;;;;;;;2.03;1.93;;;;;;;0.97;nan;52227.34;4866917;28;20889;-65
2023/12/28 05:31:30;;;;;;;1.20;1.20;;;;;;;1.00;nan;50084.34;4991796;28;20672;-64
2023/12/28 05:33:55;;;;;;;2.03;1.37;;;;;;;1.32;nan;49724.03;4993575;28;20183;-64
2023/12/28 05:36:20;;;;;;;1.37;1.30;;;;;;;1.42;nan;48168.59;4992280;28;20258;-66
2023/12/28 05:38:46;;;;;;;1.57;1.47;;;;;;;1.11;nan;47634.22;4992529;28;20639;-66
2023/12/28 05:41:11;;;;;;;1.40;1.40;;;;;;;1.31;nan;48100.88;4992519;28;20185;-65
2023/12/28 05:43:38;;;;;;;1.57;1.47;;;;;;;1.14;nan;46908.53;4992583;28;20269;-65
2023/12/28 05:46:04;;;;;;;2.03;1.90;;;;;;;1.08;nan;44572.22;4992310;28;20245;-64
2023/12/28 05:48:29;;;;;;;1.93;1.73;;;;;;;1.15;nan;46055.53;4992033;28;20230;-65
2023/12/28 05:50:56;;;;;;;4.13;2.23;;;;;;;1.39;nan;45870.84;5007279;28;20267;-64
2023/12/28 05:53:22;;;;;;;1.50;1.40;;;;;;;1.16;nan;46156.56;4991870;28;20300;-66
2023/12/28 05:55:48;;;;;;;2.60;2.10;;;;;;;0.92;nan;45096.44;4991993;28;20639;-65
2023/12/28 05:58:13;;;;;;;1.80;1.70;;;;;;;0.52;nan;42758.13;4991922;28;20578;-65
2023/12/28 06:00:42;;;;;;;1.27;1.23;;;;;;;1.03;nan;41524.19;4992273;28;20188;-63
2023/12/28 06:03:07;;;;;;;1.40;1.30;;;;;;;0.70;nan;40029.66;4992290;28;20185;-67
2023/12/28 06:05:33;;;;;;;1.50;1.40;;;;;;;0.97;nan;40139.84;4992449;28;20174;-64
2023/12/28 06:07:58;;;;;;;1.70;1.60;;;;;;;0.74;nan;40102.31;4991636;28;20225;-65
2023/12/28 06:10:26;;;;;;;1.70;1.60;;;;;;;1.09;nan;37593.59;4991809;28;20170;-64
2023/12/28 06:12:52;;;;;;;1.30;1.30;;;;;;;1.13;nan;36957.28;4991853;28;20200;-66
2023/12/28 06:15:20;;;;;;;1.50;1.40;;;;;;;1.10;nan;36316.34;4991917;28;20186;-67
2023/12/28 06:17:45;;;;;;;1.57;1.47;;;;;;;0.97;nan;35667.81;4991795;28;20175;-65
2023/12/28 06:20:11;;;;;;;1.40;1.40;;;;;;;1.06;nan;35355.09;4992209;28;20172;-66
2023/12/28 06:22:37;;;;;;;1.20;1.20;;;;;;;1.16;nan;35681.22;4991835;28;20267;-65
2023/12/28 06:25:03;;;;;;;1.53;1.43;;;;;;;1.53;nan;35067.66;4991683;28;20328;-66
2023/12/28 06:27:32;;;;;;;1.37;1.33;;;;;;;1.62;nan;35393.63;4992053;28;20623;-63
2023/12/28 06:29:57;;;;;;;1.20;1.20;;;;;;;1.42;nan;35379.59;4990751;28;20586;-65
2023/12/28 06:32:25;;;;;;;1.43;1.33;;;;;;;1.63;nan;36673.44;4991748;28;20255;-65
2023/12/28 06:34:51;;;;;;;1.50;1.40;;;;;;;1.77;nan;37323.44;4991928;28;20180;-66
2023/12/28 06:37:16;;;;;;;1.27;1.27;;;;;;;1.87;nan;37010.41;4993839;28;20196;-68
2023/12/28 06:39:41;;;;;;;1.50;1.40;;;;;;;1.94;nan;38295.88;4991452;28;20186;-63
2023/12/28 06:42:10;;;;;;;1.13;1.13;;;;;;;2.00;nan;38300.38;5006984;28;20283;-67
2023/12/28 06:44:35;;;;;;;2.00;1.80;;;;;;;1.89;nan;41139.50;4991701;28;20609;-65
2023/12/28 06:47:01;;;;;;;1.70;1.60;;;;;;;2.29;nan;41983.06;4991432;28;20204;-64
2023/12/28 06:49:26;;;;;;;2.07;1.97;;;;;;;2.33;nan;44672.94;4991278;28;20544;-67
2023/12/28 06:51:52;;;;;;;2.83;2.07;;;;;;;2.51;nan;46961.66;4991220;28;20180;-66
2023/12/28 06:54:17;;;;;;;1.63;1.53;;;;;;;2.27;nan;48516.22;4991270;28;20221;-63
2023/12/28 06:56:43;;;;;;;2.90;2.00;;;;;;;2.60;nan;48891.19;4991597;28;20546;-66
2023/12/28 06:59:12;;;;;;;2.10;1.90;;;;;;;2.83;nan;48901.56;4991722;28;20243;-63
2023/12/28 07:01:40;;;;;;;1.90;1.80;;;;;;;2.97;nan;49354.88;4991175;28;20668;-65
2023/12/28 07:04:06;;;;;;;2.27;2.07;;;;;;;2.92;nan;48938.03;5006085;28;20533;-66
2023/12/28 07:06:31;;;;;;;1.73;1.57;;;;;;;3.11;nan;48168.41;4991303;28;20267;-64
2023/12/28 07:08:56;;;;;;;1.37;1.33;;;;;;;2.87;nan;47234.56;4990908;28;20180;-63
2023/12/28 07:11:22;;;;;;;1.50;1.40;;;;;;;3.03;nan;46985.63;4991022;28;20173;-66
2023/12/28 07:13:48;;;;;;;1.60;1.50;;;;;;;3.27;nan;46742.81;4991472;28;20251;-65
2023/12/28 07:16:13;;;;;;;1.53;1.43;;;;;;;3.45;nan;47623.72;4991191;28;20274;-66
2023/12/28 07:18:39;;;;;;;1.13;1.13;;;;;;;3.55;nan;49006.16;4991213;28;20177;-65
2023/12/28 07:21:06;;;;;;;1.70;1.60;;;;;;;3.41;nan;49817.78;4995247;28;20252;-63
2023/12/28 07:23:31;;;;;;;1.77;1.67;;;;;;;3.65;nan;51043.69;4994655;28;20628;-66
2023/12/28 07:25:57;;;;;;;1.67;1.57;;;;;;;3.67;nan;51088.41;5009933;28;20178;-67
2023/12/28 07:28:23;;;;;;;1.67;1.57;;;;;;;3.37;nan;50805.81;4994948;28;20227;-65
2023/12/28 07:30:48;;;;;;;2.83;2.57;;;;;;;3.66;nan;49187.00;4993262;28;20743;-66
2023/12/28 07:33:13;;;;;;;1.47;1.37;;;;;;;3.84;nan;48876.09;4994917;28;20204;-66
2023/12/28 07:35:39;;;;;;;1.20;1.20;;;;;;;3.73;nan;51041.31;4994673;28;20644;-67
2023/12/28 07:38:04;;;;;;;1.80;1.70;;;;;;;4.09;nan;52660.25;4995901;28;20187;-64
2023/12/28 07:40:30;;;;;;;2.20;2.10;;;;;;;4.09;nan;53136.69;4994920;28;20530;-67
2023/12/28 07:42:56;;;;;;;2.23;2.03;;;;;;;4.01;nan;52897.31;4994622;28;20201;-64
2023/12/28 07:45:23;;;;;;;3.23;2.37;;;;;;;4.43;nan;53870.00;4995014;28;20651;-66
2023/12/28 07:47:51;;;;;;;1.40;1.40;;;;;;;4.57;nan;54032.06;4994422;28;20173;-66
2023/12/28 07:50:17;;;;;;;2.07;1.97;;;;;;;4.48;nan;54084.00;4994549;28;20557;-67
2023/12/28 07:52:43;;;;;;;1.30;1.30;;;;;;;4.85;nan;55126.16;4994037;28;20208;-65
2023/12/28 07:55:09;;;;;;;1.30;1.30;;;;;;;5.00;nan;55838.97;4994692;28;20211;-66
2023/12/28 07:57:35;;;;;;;2.60;2.27;;;;;;;5.13;nan;56823.22;4994333;28;20212;-66
2023/12/28 08:00:01;;;;;;;1.70;1.60;;;;;;;4.98;nan;57550.50;4994277;28;20208;-66
2023/12/28 08:02:27;;;;;;;1.97;1.87;;;;;;;5.46;nan;57874.19;4994048;28;20180;-65
2023/12/28 08:04:52;;;;;;;1.90;1.80;;;;;;;5.30;nan;58083.19;4993940;28;20351;-64
2023/12/28 08:07:18;;;;;;;1.20;1.17;;;;;;;5.65;nan;58411.06;4994015;28;20223;-64
2023/12/28 08:09:43;;;;;;;2.73;2.40;;;;;;;5.46;nan;58649.09;4993993;28;20519;-66
2023/12/28 08:12:08;;;;;;;1.93;1.83;;;;;;;5.58;nan;58798.38;4992931;28;20204;-64
2023/12/28 08:14:34;;;;;;;1.03;1.03;;;;;;;5.84;nan;58953.44;4994286;28;20172;-65
2023/12/28 08:16:59;;;;;;;2.57;2.37;;;;;;;5.77;nan;59057.75;4992569;28;20270;-68
2023/12/28 08:19:25;;;;;;;2.80;2.27;;;;;;;5.88;nan;59063.66;4993728;28;20566;-66
2023/12/28 08:21:50;;;;;;;2.07;1.90;;;;;;;6.19;nan;59123.63;4993752;28;20175;-66
2023/12/28 08:24:16;;;;;;;2.30;1.60;;;;;;;6.30;nan;59218.25;4994417;28;20247;-62
2023/12/28 08:26:42;;;;;;;2.90;2.03;;;;;;;6.17;nan;59338.81;4993888;28;20228;-67
2023/12/28 08:29:07;;;;;;;1.70;1.53;;;;;;;6.41;nan;59486.97;4993728;28;20173;-63
2023/12/28 08:31:32;;;;;;;1.60;1.50;;;;;;;6.35;nan;59535.56;4991694;28;20225;-67
2023/12/28 08:33:58;;;;;;;2.03;1.90;;;;;;;6.66;nan;59689.06;4993378;28;20205;-65
2023/12/28 08:36:23;;;;;;;1.37;1.33;;;;;;;6.52;nan;59676.63;4993370;28;20659;-64
2023/12/28 08:38:49;;;;;;;2.23;1.77;;;;;;;6.79;nan;59716.16;4995188;28;20184;-65
2023/12/28 08:41:23;;;;;;;1.10;1.10;;;;;;;7.10;nan;59819.06;4993461;28;20196;-66
2023/12/28 08:43:49;;;;;;;1.40;1.30;;;;;;;6.93;nan;59878.88;4993734;28;20165;-64
2023/12/28 08:46:14;;;;;;;1.70;1.60;;;;;;;7.23;nan;59794.31;4993497;28;20183;-66
2023/12/28 08:48:41;;;;;;;1.67;1.57;;;;;;;7.21;nan;59845.41;4992954;28;20206;-67
2023/12/28 08:51:06;;;;;;;1.50;1.40;;;;;;;7.27;nan;59900.88;4993343;28;20669;-63
2023/12/28 08:53:31;;;;;;;3.90;1.80;;;;;;;7.60;nan;60093.97;4993296;28;20200;-64
2023/12/28 08:55:57;;;;;;;1.80;1.70;;;;;;;7.67;nan;60056.59;4993378;28;20219;-67
2023/12/28 08:58:22;;;;;;;1.30;1.30;;;;;;;7.71;nan;60111.88;4993296;28;20183;-66
2023/12/28 09:00:48;;;;;;;2.90;1.90;;;;;;;8.08;nan;60172.34;4993088;28;20187;-66
2023/12/28 09:03:14;;;;;;;2.20;2.03;;;;;;;8.10;nan;60269.22;4992876;28;20171;-67
2023/12/28 09:05:39;;;;;;;1.70;1.60;;;;;;;8.09;nan;60293.00;4992890;28;20168;-65
2023/12/28 09:08:05;;;;;;;1.97;1.83;;;;;;;8.21;nan;60308.94;4993315;28;20191;-66
2023/12/28 09:10:31;;;;;;;2.10;1.90;;;;;;;8.25;nan;60338.84;5024677;28;20268;-63
2023/12/28 09:12:56;;;;;;;1.70;1.60;;;;;;;8.35;nan;60360.22;4992835;28;20196;-65
2023/12/28 09:15:22;;;;;;;1.87;1.77;;;;;;;8.77;nan;60373.56;4992610;28;20235;-66
2023/12/28 09:17:47;;;;;;;2.00;1.80;;;;;;;8.76;nan;60364.81;4992816;28;20679;-63
2023/12/28 09:20:13;;;;;;;1.70;1.60;;;;;;;8.88;nan;60415.88;4992624;28;20181;-64
2023/12/28 09:22:38;;;;;;;1.80;1.70;;;;;;;9.03;nan;60395.00;4940765;28;20282;-68
2023/12/28 09:25:04;;;;;;;2.23;2.00;;;;;;;8.98;nan;60401.56;4992820;28;20249;-65
2023/12/28 09:27:30;;;;;;;1.90;1.80;;;;;;;9.20;nan;60457.31;4992727;28;20239;-66
2023/12/28 09:29:55;;;;;;;1.77;1.43;;;;;;;9.32;nan;60483.50;4992645;28;20173;-66
2023/12/28 09:32:21;;;;;;;1.90;1.80;;;;;;;9.33;nan;60496.81;4992741;28;20271;-67
2023/12/28 09:34:46;;;;;;;2.20;1.77;;;;;;;9.23;nan;60495.81;4992085;28;20226;-66
2023/12/28 09:37:11;;;;;;;1.55;1.45;;;;;;;9.57;nan;60498.19;4992991;28;20184;-65
2023/12/28 09:39:37;;;;;;;2.28;2.08;;;;;;;9.52;nan;60555.78;4992256;28;20177;-63
2023/12/28 09:42:06;;;;;;;2.85;2.33;;;;;;;9.76;nan;60504.19;4991675;28;20184;-64
2023/12/28 09:44:36;;;;;;;3.67;2.10;;;;;;;9.70;nan;60556.13;4992331;28;20177;-66
2023/12/28 09:47:02;;;;;;;2.88;2.47;;;;;;;9.85;nan;60582.03;4992420;28;20169;-65
2023/12/28 09:49:30;;;;;;;9.02;2.58;;;;;;;10.25;nan;60575.88;4992428;28;20191;-65
2023/12/28 09:51:56;;;;;;;4.05;2.17;;;;;;;10.35;nan;60627.94;4992271;28;20577;-63
2023/12/28 09:54:21;;;;;;;5.03;1.60;;;;;;;10.43;nan;60649.09;4992159;28;20644;-67
2023/12/28 09:56:47;;;;;;;1.58;1.48;;;;;;;10.44;nan;60634.91;4990955;28;20188;-65
2023/12/28 09:59:16;;;;;;;4.00;2.22;;;;;;;10.37;nan;60630.16;4985524;28;20567;-66
2023/12/28 10:01:42;;;;;;;2.15;1.88;;;;;;;10.44;nan;60640.59;4991537;28;20196;-67
2023/12/28 10:04:08;;;;;;;2.25;2.05;;;;;;;10.40;nan;60641.22;4992499;28;20176;-64
2023/12/28 10:06:34;;;;;;;1.33;1.23;;;;;;;10.60;nan;60675.84;4992362;28;20189;-66
2023/12/28 10:09:00;;;;;;;1.75;1.65;;;;;;;10.76;nan;60695.81;4992476;28;20173;-66
2023/12/28 10:11:26;;;;;;;1.52;1.42;;;;;;;10.71;nan;60710.63;4992157;28;20482;-66
2023/12/28 10:13:53;;;;;;;5.10;1.90;;;;;;;10.42;nan;60679.19;4991865;28;20204;-65
2023/12/28 10:16:19;;;;;;;2.05;1.85;;;;;;;10.57;nan;60723.56;4992100;28;20169;-69
2023/12/28 10:18:44;;;;;;;2.03;1.90;;;;;;;10.38;nan;60710.44;4991915;28;20223;-63
2023/12/28 10:21:11;;;;;;;2.50;2.30;;;;;;;10.57;nan;60675.59;4991919;28;20268;-65
2023/12/28 10:23:37;;;;;;;2.17;2.08;;;;;;;10.54;nan;60638.47;4992182;28;20172;-67
2023/12/28 10:26:05;;;;;;;1.67;1.58;;;;;;;11.00;nan;60743.22;4992188;28;20184;-68
2023/12/28 10:28:33;;;;;;;1.95;1.75;;;;;;;10.79;nan;60656.31;4991807;28;20176;-66
2023/12/28 10:30:58;;;;;;;2.08;1.88;;;;;;;11.31;nan;60867.53;4476271;28;20228;-65
2023/12/28 10:33:25;;;;;;;1.52;1.42;;;;;;;11.17;nan;60861.44;4992980;28;20219;-67
2023/12/28 10:35:51;;;;;;;1.27;1.27;;;;;;;11.55;nan;60899.09;4991960;28;20180;-63
2023/12/28 10:38:17;;;;;;;1.63;1.52;;;;;;;11.65;nan;60910.38;4991793;28;20617;-65
2023/12/28 10:40:48;;;;;;;1.88;1.77;;;;;;;11.57;nan;60859.84;4991729;28;20259;-67
2023/12/28 10:43:21;;;;;;;2.42;2.22;;;;;;;11.81;nan;60927.84;4991346;28;20540;-65
2023/12/28 10:45:51;;;;;;;1.90;1.70;;;;;;;12.16;nan;60969.28;4991877;28;20184;-65
2023/12/28 10:48:24;;;;;;;2.10;1.75;;;;;;;12.23;nan;60952.09;4991393;28;20223;-66
2023/12/28 10:50:52;;;;;;;1.50;1.40;;;;;;;12.33;nan;61004.34;4991807;28;20254;-67
2023/12/28 10:53:49;;;;;;;2.05;1.85;;;;;;;12.37;nan;60972.44;4991454;28;20676;-66
2023/12/28 10:56:38;;;;;;;1.52;1.42;;;;;;;12.42;nan;60921.72;4996186;28;20671;-64
2023/12/28 10:59:24;;;;;;;1.60;1.50;;;;;;;12.57;nan;60969.34;4995865;28;20164;-64
2023/12/28 11:01:51;;;;;;;1.55;1.45;;;;;;;12.12;nan;60993.47;4995483;28;20172;-64
2023/12/28 11:04:42;;;;;;;2.33;1.67;;;;;;;12.39;nan;61008.00;4994948;28;20619;-64
2023/12/28 11:07:11;;;;;;;1.75;1.65;;;;;;;12.25;nan;60954.34;4995511;28;20181;-63
2023/12/28 11:09:37;;;;;;;1.48;1.38;;;;;;;12.58;nan;61019.16;4995342;28;20177;-63
2023/12/28 11:12:06;;;;;;;4.65;1.65;;;;;;;12.49;nan;60970.00;4995184;28;20625;-63
2023/12/28 11:14:34;;;;;;;1.27;1.20;;;;;;;12.45;nan;61006.50;4995310;28;20658;-64
2023/12/28 11:17:03;;;;;;;1.40;1.30;;;;;;;12.25;nan;60935.88;4995185;28;20251;-66
2023/12/28 11:19:29;;;;;;;1.52;1.15;;;;;;;12.33;nan;60939.75;4995360;28;20255;-63
2023/12/28 11:21:56;;;;;;;5.28;1.55;;;;;;;12.37;nan;60957.63;4995168;28;20172;-64
2023/12/28 11:24:23;;;;;;;1.40;1.30;;;;;;;12.44;nan;60987.44;4994831;28;20676;-65
2023/12/28 11:26:54;;;;;;;1.55;1.45;;;;;;;12.70;nan;61021.88;4995373;28;20195;-65
2023/12/28 11:29:20;;;;;;;1.50;1.40;;;;;;;12.35;nan;61109.03;4995076;28;20264;-65
2023/12/28 11:31:54;;;;;;;1.60;1.45;;;;;;;12.28;nan;60975.66;4995268;28;20259;-66
2023/12/28 11:34:24;;;;;;;2.70;1.63;;;;;;;12.68;nan;61024.72;4995160;28;20165;-64
2023/12/28 11:36:53;;;;;;;1.58;1.48;;;;;;;12.46;nan;61094.72;4995053;28;20200;-66
2023/12/28 11:39:29;;;;;;;2.17;1.73;;;;;;;12.61;nan;60980.97;4994817;28;20180;-66
2023/12/28 11:42:05;;;;;;;4.40;1.90;;;;;;;12.85;nan;61013.69;4994483;28;20263;-62
2023/12/28 11:44:37;;;;;;;1.77;1.30;;;;;;;12.90;nan;61049.53;4994778;28;20176;-64
2023/12/28 11:47:14;;;;;;;2.92;1.88;;;;;;;12.98;nan;61073.97;4995046;28;20228;-65
2023/12/28 11:49:51;;;;;;;2.00;1.38;;;;;;;13.14;nan;61058.13;4993165;28;20279;-65
2023/12/28 11:52:24;;;;;;;1.77;1.67;;;;;;;13.24;nan;61033.47;4994246;28;20197;-65
2023/12/28 11:54:50;;;;;;;1.40;1.30;;;;;;;13.31;nan;61087.00;4994781;28;20268;-66